Time;durP1;ratioP1;P1;durP2;ratioP2;P2;SDS_P1;SDS_P2;PMS_P1;PMS_P2;Temp;Humidity;BMP_temperature;BMP_pressure;BME280_temperature;BME280_humidity;BME280_pressure;Samples;Min_cycle;Max_cycle;Signal;HPM_P1;HPM_P2
2023/06/11 00:02:32;;;;;;;4.27;3.87;;;21.50;60.90;;;;;;5078746;28;20462;-78
2023/06/11 00:04:59;;;;;;;5.90;3.40;;;21.50;61.00;;;;;;5076822;28;20480;-77
2023/06/11 00:07:28;;;;;;;5.43;4.37;;;21.50;61.10;;;;;;5068537;28;21050;-76
2023/06/11 00:09:55;;;;;;;4.40;4.00;;;21.40;61.30;;;;;;5077087;28;20469;-78
2023/06/11 00:12:26;;;;;;;4.03;3.73;;;21.40;61.30;;;;;;5077355;28;20470;-76
2023/06/11 00:14:53;;;;;;;9.30;3.57;;;21.40;61.50;;;;;;5077180;28;20470;-77
2023/06/11 00:17:20;;;;;;;3.57;3.27;;;21.40;61.50;;;;;;5076878;28;20462;-77
2023/06/11 00:19:48;;;;;;;3.70;3.40;;;21.40;61.50;;;;;;5078134;28;20472;-77
2023/06/11 00:22:17;;;;;;;4.60;4.23;;;21.40;61.80;;;;;;5074795;28;20544;-75
2023/06/11 00:24:44;;;;;;;4.53;3.60;;;21.40;61.90;;;;;;5077444;28;20473;-75
2023/06/11 00:27:11;;;;;;;6.90;4.33;;;21.30;61.90;;;;;;5077164;28;20474;-76
2023/06/11 00:29:40;;;;;;;3.33;3.03;;;21.30;62.10;;;;;;5076355;28;20471;-74
2023/06/11 00:32:09;;;;;;;7.40;3.50;;;21.20;62.30;;;;;;5075566;28;20517;-76
2023/06/11 00:34:37;;;;;;;3.93;3.00;;;21.20;62.60;;;;;;5062327;28;20488;-75
2023/06/11 00:37:05;;;;;;;5.23;3.00;;;21.20;62.60;;;;;;5065711;28;20462;-75
2023/06/11 00:39:33;;;;;;;4.10;3.70;;;21.20;62.70;;;;;;5076352;28;20466;-74
2023/06/11 00:42:10;;;;;;;3.53;3.23;;;21.20;62.80;;;;;;5075760;28;20458;-76
2023/06/11 00:44:37;;;;;;;3.67;3.27;;;21.10;62.80;;;;;;5073210;28;20465;-76
2023/06/11 00:47:06;;;;;;;3.43;3.23;;;21.10;63.20;;;;;;5075986;28;20505;-76
2023/06/11 00:49:33;;;;;;;3.60;2.53;;;21.00;63.30;;;;;;5075409;28;20627;-78
2023/06/11 00:52:00;;;;;;;3.93;3.53;;;21.00;63.50;;;;;;5075664;28;20463;-76
2023/06/11 00:54:27;;;;;;;5.67;3.23;;;21.00;63.70;;;;;;5074637;28;20474;-78
2023/06/11 00:56:54;;;;;;;5.47;4.00;;;21.00;63.90;;;;;;5076074;28;20465;-78
2023/06/11 00:59:22;;;;;;;3.20;2.90;;;20.90;63.80;;;;;;5074970;28;20468;-75
2023/06/11 01:01:58;;;;;;;7.10;3.10;;;20.90;63.90;;;;;;5076199;28;20956;-75
2023/06/11 01:04:29;;;;;;;4.93;2.83;;;20.90;64.00;;;;;;5074199;28;20993;-75
2023/06/11 01:07:02;;;;;;;6.20;3.60;;;20.80;64.00;;;;;;5074713;28;20458;-77
2023/06/11 01:09:31;;;;;;;3.73;3.27;;;20.80;64.10;;;;;;5072441;28;20473;-77
2023/06/11 01:12:02;;;;;;;3.87;3.47;;;20.80;64.50;;;;;;5074090;28;20490;-76
2023/06/11 01:14:34;;;;;;;3.00;2.70;;;20.70;64.50;;;;;;5073853;28;20467;-76
2023/06/11 01:17:07;;;;;;;3.50;3.20;;;20.70;64.70;;;;;;5047959;28;20475;-78
2023/06/11 01:19:52;;;;;;;4.00;3.70;;;20.70;64.70;;;;;;5070740;28;20470;-74
2023/06/11 01:22:29;;;;;;;3.23;2.60;;;20.70;64.80;;;;;;5073250;28;20856;-75
2023/06/11 01:25:25;;;;;;;6.23;4.20;;;20.70;64.80;;;;;;5075091;28;20468;-75
2023/06/11 01:28:03;;;;;;;6.50;5.10;;;20.70;65.10;;;;;;5073719;28;20462;-77
2023/06/11 01:30:32;;;;;;;5.53;4.23;;;20.60;65.10;;;;;;5074564;28;20974;-74
2023/06/11 01:33:01;;;;;;;5.10;4.60;;;20.60;65.20;;;;;;5072583;28;20955;-75
2023/06/11 01:35:29;;;;;;;6.57;4.60;;;20.60;65.20;;;;;;5073255;28;20462;-75
2023/06/11 01:37:57;;;;;;;4.43;4.03;;;20.60;65.40;;;;;;5073514;28;20807;-75
2023/06/11 01:40:25;;;;;;;4.33;3.93;;;20.60;65.50;;;;;;5073880;28;20932;-77
2023/06/11 01:42:55;;;;;;;6.33;3.90;;;20.60;65.50;;;;;;5073433;28;20471;-78
2023/06/11 01:45:36;;;;;;;3.70;3.40;;;20.50;65.60;;;;;;5074004;28;20501;-75
2023/06/11 01:48:04;;;;;;;5.00;3.20;;;20.50;65.80;;;;;;5073147;28;20948;-75
2023/06/11 01:50:33;;;;;;;4.33;3.53;;;20.50;65.80;;;;;;5072983;28;20863;-75
2023/06/11 01:53:00;;;;;;;3.97;3.10;;;20.40;66.00;;;;;;5072481;28;20547;-78
2023/06/11 01:55:30;;;;;;;4.27;3.87;;;20.40;66.20;;;;;;5072750;28;20458;-78
2023/06/11 01:57:57;;;;;;;4.07;3.77;;;20.40;66.40;;;;;;5073337;28;20549;-77
2023/06/11 02:00:27;;;;;;;6.50;3.70;;;20.40;66.50;;;;;;5072594;28;20465;-78
2023/06/11 02:02:56;;;;;;;3.70;2.77;;;20.30;66.60;;;;;;5072749;28;20462;-76
2023/06/11 02:05:28;;;;;;;4.27;3.87;;;20.30;66.70;;;;;;5073174;28;20553;-76
2023/06/11 02:07:55;;;;;;;3.80;2.93;;;20.30;66.90;;;;;;5071552;28;20482;-76
2023/06/11 02:10:22;;;;;;;3.53;3.03;;;20.30;66.60;;;;;;5072464;28;20466;-77
2023/06/11 02:12:50;;;;;;;5.27;3.17;;;20.20;66.60;;;;;;5072417;28;20827;-78
2023/06/11 02:15:17;;;;;;;3.87;3.10;;;20.20;66.70;;;;;;5073311;28;20797;-76
2023/06/11 02:17:46;;;;;;;5.70;3.57;;;20.20;66.90;;;;;;5073257;28;20496;-76
2023/06/11 02:20:15;;;;;;;3.37;3.07;;;20.20;67.10;;;;;;5071921;28;20462;-76
2023/06/11 02:22:44;;;;;;;3.70;3.37;;;20.10;67.10;;;;;;5072028;28;20565;-78
2023/06/11 02:25:11;;;;;;;3.80;2.70;;;20.10;67.10;;;;;;5072433;28;20474;-78
2023/06/11 02:27:39;;;;;;;3.90;3.60;;;20.10;67.30;;;;;;5073422;28;20473;-76
2023/06/11 02:30:07;;;;;;;4.73;3.33;;;20.00;67.30;;;;;;5071822;28;20520;-76
2023/06/11 02:32:34;;;;;;;3.20;2.90;;;20.10;67.60;;;;;;5073401;28;20976;-75
2023/06/11 02:35:04;;;;;;;5.43;3.83;;;20.00;67.80;;;;;;5072802;28;20539;-78
2023/06/11 02:37:32;;;;;;;3.60;2.67;;;20.00;68.30;;;;;;5073365;28;20477;-78
2023/06/11 02:39:59;;;;;;;8.10;3.80;;;20.00;68.30;;;;;;5073033;28;20557;-78
2023/06/11 02:42:26;;;;;;;3.90;3.20;;;19.90;68.50;;;;;;5072507;28;20476;-75
2023/06/11 02:44:54;;;;;;;5.90;3.47;;;19.90;68.70;;;;;;5072491;28;20819;-76
2023/06/11 02:47:24;;;;;;;5.50;3.10;;;19.80;68.80;;;;;;5071696;28;20466;-76
2023/06/11 02:49:51;;;;;;;5.73;4.10;;;19.80;69.00;;;;;;5073930;28;20467;-78
2023/06/11 02:52:19;;;;;;;4.43;3.10;;;19.80;69.20;;;;;;5073594;28;20466;-78
2023/06/11 02:54:46;;;;;;;6.00;4.40;;;19.70;69.20;;;;;;5073728;28;20591;-78
2023/06/11 02:57:14;;;;;;;3.40;3.10;;;19.70;69.60;;;;;;5072776;28;20466;-78
2023/06/11 02:59:41;;;;;;;6.03;3.37;;;19.60;69.60;;;;;;5074886;28;20501;-76
2023/06/11 03:02:08;;;;;;;5.80;3.93;;;19.60;69.80;;;;;;5071952;28;20487;-76
2023/06/11 03:04:36;;;;;;;4.10;3.27;;;19.50;70.00;;;;;;5073370;28;20994;-77
2023/06/11 03:07:03;;;;;;;4.60;4.07;;;19.40;70.20;;;;;;5073803;28;20988;-76
2023/06/11 03:09:31;;;;;;;4.23;3.10;;;19.40;70.60;;;;;;5075379;28;20474;-76
2023/06/11 03:12:01;;;;;;;3.67;3.33;;;19.40;70.60;;;;;;5059839;28;20470;-77
2023/06/11 03:14:28;;;;;;;4.20;3.80;;;19.30;70.60;;;;;;5076370;28;20462;-76
2023/06/11 03:16:55;;;;;;;3.83;3.43;;;19.30;70.80;;;;;;5076493;28;20466;-77
2023/06/11 03:19:24;;;;;;;3.30;3.00;;;19.20;70.80;;;;;;5075575;28;20990;-76
2023/06/11 03:21:54;;;;;;;4.97;3.57;;;19.20;70.80;;;;;;5076221;28;20785;-78
2023/06/11 03:24:22;;;;;;;5.33;3.00;;;19.20;70.90;;;;;;5075927;28;20484;-76
2023/06/11 03:26:50;;;;;;;9.53;4.77;;;19.10;71.10;;;;;;5076702;28;20474;-76
2023/06/11 03:29:17;;;;;;;12.63;4.27;;;19.00;71.10;;;;;;5076031;28;20473;-76
2023/06/11 03:31:45;;;;;;;6.67;4.00;;;19.00;71.20;;;;;;5076394;28;20492;-76
2023/06/11 03:34:12;;;;;;;11.10;4.20;;;19.00;71.30;;;;;;5075278;28;20482;-76
2023/06/11 03:36:51;;;;;;;3.40;3.17;;;18.80;71.40;;;;;;5076178;28;20520;-77
2023/06/11 03:39:18;;;;;;;3.43;3.13;;;18.80;71.70;;;;;;5075146;28;20487;-77
2023/06/11 03:41:45;;;;;;;3.70;2.97;;;18.80;72.10;;;;;;5076596;28;21025;-77
2023/06/11 03:44:13;;;;;;;7.63;3.50;;;18.60;72.10;;;;;;5056679;28;20479;-78
2023/06/11 03:46:41;;;;;;;3.00;2.53;;;18.60;73.20;;;;;;5068391;28;20773;-76
2023/06/11 03:49:08;;;;;;;4.10;3.20;;;18.60;72.50;;;;;;5076219;28;20969;-78
2023/06/11 03:51:35;;;;;;;4.23;3.33;;;18.60;72.60;;;;;;5075372;28;20502;-76
2023/06/11 03:54:08;;;;;;;4.27;2.83;;;18.60;72.60;;;;;;5077178;28;20555;-76
2023/06/11 03:56:36;;;;;;;6.63;3.90;;;18.60;72.80;;;;;;5075490;28;20455;-78
2023/06/11 03:59:03;;;;;;;4.80;3.40;;;18.60;72.90;;;;;;5075376;28;20474;-78
2023/06/11 04:01:31;;;;;;;5.03;3.27;;;18.50;73.20;;;;;;5075882;28;20860;-75
2023/06/11 04:03:58;;;;;;;12.97;3.50;;;18.60;73.20;;;;;;5059649;28;20482;-76
2023/06/11 04:06:27;;;;;;;3.30;3.03;;;18.60;73.30;;;;;;5064588;28;20497;-75
2023/06/11 04:08:55;;;;;;;3.83;3.47;;;18.60;73.40;;;;;;5076456;28;20474;-78
2023/06/11 04:11:22;;;;;;;3.70;3.40;;;18.60;73.70;;;;;;5066023;28;20474;-75
2023/06/11 04:13:50;;;;;;;4.80;3.03;;;18.60;73.70;;;;;;5075734;28;20814;-77
2023/06/11 04:16:20;;;;;;;4.43;3.13;;;18.60;73.40;;;;;;5076415;28;20470;-75
2023/06/11 04:18:52;;;;;;;3.53;2.80;;;18.60;73.60;;;;;;5074563;28;20463;-75
2023/06/11 04:21:19;;;;;;;4.63;3.13;;;18.60;73.60;;;;;;5075107;28;20489;-75
2023/06/11 04:23:46;;;;;;;4.10;3.10;;;18.60;73.70;;;;;;5075952;28;20461;-74
2023/06/11 04:26:15;;;;;;;4.03;3.70;;;18.60;73.60;;;;;;5075300;28;20489;-75
2023/06/11 04:28:45;;;;;;;4.73;3.00;;;18.70;73.90;;;;;;5074827;28;20467;-75
2023/06/11 04:31:14;;;;;;;4.37;3.07;;;18.70;73.80;;;;;;5075497;28;20470;-75
2023/06/11 04:33:41;;;;;;;3.60;3.03;;;18.70;73.80;;;;;;5074945;28;20478;-75
2023/06/11 04:36:11;;;;;;;4.70;2.90;;;18.70;73.80;;;;;;5075987;28;20572;-77
2023/06/11 04:38:44;;;;;;;7.13;3.57;;;18.80;73.90;;;;;;5074687;28;20557;-78
2023/06/11 04:41:17;;;;;;;2.97;2.77;;;18.80;74.00;;;;;;5076078;28;20478;-77
2023/06/11 04:43:46;;;;;;;4.67;3.70;;;18.80;74.00;;;;;;5056716;28;20568;-77
2023/06/11 04:46:14;;;;;;;2.83;2.63;;;18.80;74.00;;;;;;5065975;28;20474;-76
2023/06/11 04:48:48;;;;;;;4.30;3.33;;;18.80;74.10;;;;;;5076926;28;20577;-77
2023/06/11 04:51:17;;;;;;;4.27;3.30;;;18.80;74.10;;;;;;5075241;28;20481;-75
2023/06/11 04:53:45;;;;;;;4.43;3.10;;;18.80;74.20;;;;;;5076010;28;20955;-77
2023/06/11 04:56:12;;;;;;;4.53;3.03;;;18.70;74.20;;;;;;5076816;28;20521;-77
2023/06/11 04:58:39;;;;;;;8.90;3.17;;;18.80;74.40;;;;;;5076177;28;20470;-77
2023/06/11 05:01:07;;;;;;;6.90;3.10;;;18.80;74.50;;;;;;5078060;28;20548;-77
2023/06/11 05:03:38;;;;;;;4.07;2.93;;;18.90;74.70;;;;;;5076289;28;20494;-77
2023/06/11 05:06:06;;;;;;;4.07;2.80;;;18.90;74.70;;;;;;5079653;28;20481;-75
2023/06/11 05:08:37;;;;;;;3.10;2.80;;;19.00;75.00;;;;;;5073867;28;20978;-75
2023/06/11 05:11:05;;;;;;;6.90;3.37;;;19.00;74.80;;;;;;5079154;28;20820;-75
2023/06/11 05:13:32;;;;;;;3.73;2.63;;;19.10;74.90;;;;;;5076757;28;20781;-75
2023/06/11 05:15:59;;;;;;;2.60;2.40;;;19.20;74.90;;;;;;5075947;28;20466;-77
2023/06/11 05:18:27;;;;;;;4.03;3.30;;;19.20;74.80;;;;;;5076612;28;20470;-75
2023/06/11 05:20:58;;;;;;;3.27;3.07;;;19.30;75.00;;;;;;5077990;28;20486;-77
2023/06/11 05:23:28;;;;;;;3.70;3.27;;;19.30;74.70;;;;;;5075854;28;20478;-76
2023/06/11 05:26:01;;;;;;;5.53;2.70;;;19.40;74.70;;;;;;5060458;28;20552;-76
2023/06/11 05:28:29;;;;;;;3.47;2.60;;;19.50;74.70;;;;;;5076207;28;20470;-74
2023/06/11 05:30:56;;;;;;;4.43;2.80;;;19.50;74.40;;;;;;5075501;28;20459;-75
2023/06/11 05:33:26;;;;;;;4.13;2.90;;;19.50;74.30;;;;;;5076130;28;20545;-77
2023/06/11 05:35:53;;;;;;;4.27;3.43;;;19.60;74.30;;;;;;5077600;28;20480;-77
2023/06/11 05:38:21;;;;;;;5.00;3.07;;;19.70;74.20;;;;;;5078277;28;20467;-78
2023/06/11 05:40:48;;;;;;;2.63;2.43;;;19.80;74.10;;;;;;5081097;28;20479;-76
2023/06/11 05:43:16;;;;;;;4.33;2.43;;;19.90;74.10;;;;;;5078039;28;20527;-76
2023/06/11 05:45:55;;;;;;;3.60;3.20;;;19.90;73.80;;;;;;5075882;28;20489;-75
2023/06/11 05:48:27;;;;;;;4.90;2.93;;;20.00;73.50;;;;;;5031807;28;20525;-77
2023/06/11 05:50:54;;;;;;;3.37;3.07;;;20.10;73.30;;;;;;5036393;28;20593;-76
2023/06/11 05:53:21;;;;;;;5.73;2.90;;;20.10;73.00;;;;;;5052888;28;20497;-76
2023/06/11 05:55:49;;;;;;;2.80;2.60;;;20.20;73.00;;;;;;5056526;28;20475;-77
2023/06/11 05:58:18;;;;;;;3.77;2.90;;;20.30;73.10;;;;;;5058620;28;20830;-76
2023/06/11 06:00:45;;;;;;;2.60;2.40;;;20.40;73.10;;;;;;5057046;28;20467;-75
2023/06/11 06:03:12;;;;;;;4.00;2.90;;;20.50;72.90;;;;;;5054789;28;20459;-76
2023/06/11 06:05:39;;;;;;;3.23;2.93;;;20.60;72.60;;;;;;5054915;28;21045;-75
2023/06/11 06:08:07;;;;;;;4.90;3.17;;;20.70;72.50;;;;;;5056279;28;20471;-74
2023/06/11 06:10:37;;;;;;;2.80;2.60;;;20.90;72.30;;;;;;5054533;28;20538;-75
2023/06/11 06:13:04;;;;;;;6.90;3.03;;;21.00;72.10;;;;;;5054549;28;20478;-77
2023/06/11 06:15:33;;;;;;;4.17;3.03;;;21.20;71.80;;;;;;5053322;28;20471;-76
2023/06/11 06:18:08;;;;;;;3.70;3.10;;;21.40;71.40;;;;;;5054252;28;20482;-77
2023/06/11 06:20:41;;;;;;;3.63;3.33;;;21.50;71.00;;;;;;5052811;28;20520;-76
2023/06/11 06:23:10;;;;;;;6.23;3.90;;;21.60;70.80;;;;;;5055171;28;20459;-78
2023/06/11 06:25:41;;;;;;;3.40;3.10;;;21.80;70.40;;;;;;5054098;28;20949;-78
2023/06/11 06:28:10;;;;;;;5.50;3.50;;;21.90;70.20;;;;;;5053429;28;20455;-76
2023/06/11 06:30:39;;;;;;;3.97;3.00;;;22.00;69.50;;;;;;5053264;28;20474;-76
2023/06/11 06:33:19;;;;;;;3.63;3.30;;;22.10;68.90;;;;;;5031365;28;20484;-78
2023/06/11 06:35:46;;;;;;;3.30;3.00;;;22.20;69.10;;;;;;5048589;28;20506;-79
2023/06/11 06:38:13;;;;;;;6.13;4.43;;;22.30;69.30;;;;;;5020267;28;20935;-78
2023/06/11 06:40:42;;;;;;;3.83;3.20;;;22.50;69.10;;;;;;5037403;28;20470;-78
2023/06/11 06:43:09;;;;;;;4.40;2.93;;;22.70;69.00;;;;;;5051851;28;20463;-75
2023/06/11 06:45:46;;;;;;;7.80;3.40;;;22.80;68.50;;;;;;5052593;28;20483;-75
2023/06/11 06:48:14;;;;;;;4.50;3.50;;;23.00;68.20;;;;;;5066992;28;20496;-75
2023/06/11 06:50:41;;;;;;;3.97;3.00;;;23.10;67.40;;;;;;5073206;28;20470;-75
2023/06/11 06:53:10;;;;;;;4.97;3.40;;;23.30;67.10;;;;;;5071940;28;20463;-76
2023/06/11 06:55:38;;;;;;;4.43;3.53;;;23.40;66.80;;;;;;5071589;28;20535;-77
2023/06/11 06:58:05;;;;;;;7.93;3.10;;;23.50;67.00;;;;;;5071782;28;20467;-77
2023/06/11 07:00:32;;;;;;;3.77;2.90;;;23.70;66.90;;;;;;5054906;28;20459;-77
2023/06/11 07:03:01;;;;;;;5.30;3.40;;;23.90;65.70;;;;;;5072711;28;20500;-75
2023/06/11 07:05:28;;;;;;;3.40;3.10;;;24.00;65.30;;;;;;5068754;28;20498;-75
2023/06/11 07:07:56;;;;;;;3.93;2.97;;;24.30;65.70;;;;;;5072373;28;20485;-76
2023/06/11 07:10:23;;;;;;;5.53;3.43;;;24.40;65.20;;;;;;5071534;28;20471;-76
2023/06/11 07:12:50;;;;;;;3.27;2.97;;;24.50;65.00;;;;;;5071957;28;20477;-78
2023/06/11 07:15:17;;;;;;;3.47;3.17;;;24.60;64.90;;;;;;5070904;28;20563;-74
2023/06/11 07:17:45;;;;;;;4.17;3.77;;;24.80;65.20;;;;;;5071944;28;20768;-78
2023/06/11 07:20:13;;;;;;;3.90;2.80;;;24.80;64.60;;;;;;5072126;28;20963;-76
2023/06/11 07:22:41;;;;;;;3.10;2.80;;;24.80;65.30;;;;;;5072829;28;20553;-76
2023/06/11 07:25:11;;;;;;;3.77;3.47;;;24.90;64.10;;;;;;5063614;28;20505;-78
2023/06/11 07:27:41;;;;;;;6.63;3.30;;;25.00;63.60;;;;;;5072037;28;20761;-75
2023/06/11 07:30:14;;;;;;;3.30;3.00;;;25.20;63.90;;;;;;5071705;28;20859;-75
2023/06/11 07:32:41;;;;;;;3.87;3.47;;;25.30;63.30;;;;;;5072323;28;20450;-76
2023/06/11 07:35:11;;;;;;;4.60;3.30;;;25.40;63.00;;;;;;5072890;28;20466;-74
2023/06/11 07:37:41;;;;;;;7.73;3.30;;;25.60;62.60;;;;;;5055800;28;20479;-75
2023/06/11 07:40:12;;;;;;;3.33;3.03;;;25.70;61.90;;;;;;5067163;28;20470;-76
2023/06/11 07:42:39;;;;;;;3.73;3.43;;;25.70;61.90;;;;;;5071216;28;20473;-78
2023/06/11 07:45:07;;;;;;;3.53;3.23;;;25.80;61.30;;;;;;5072700;28;20474;-76
2023/06/11 07:47:39;;;;;;;7.93;3.83;;;25.90;60.80;;;;;;5050614;28;20530;-76
2023/06/11 07:50:08;;;;;;;7.20;3.57;;;26.00;61.10;;;;;;5066002;28;20474;-76
2023/06/11 07:52:36;;;;;;;4.70;3.23;;;26.10;60.70;;;;;;5074250;28;20967;-78
2023/06/11 07:55:06;;;;;;;7.03;3.73;;;26.20;60.40;;;;;;5077019;28;20478;-76
2023/06/11 07:57:34;;;;;;;3.87;3.47;;;26.30;60.20;;;;;;5077305;28;20565;-78
2023/06/11 08:00:01;;;;;;;7.77;3.50;;;26.30;59.70;;;;;;5077917;28;20558;-78
2023/06/11 08:02:28;;;;;;;5.90;3.47;;;26.40;59.20;;;;;;5076731;28;20466;-76
2023/06/11 08:04:58;;;;;;;4.30;4.00;;;26.50;59.30;;;;;;5076278;28;20462;-77
2023/06/11 08:07:25;;;;;;;3.93;3.63;;;26.60;59.40;;;;;;5066292;28;20463;-75
2023/06/11 08:09:52;;;;;;;3.50;3.20;;;26.70;59.00;;;;;;5067379;28;20476;-77
2023/06/11 08:12:21;;;;;;;4.67;3.60;;;26.70;59.00;;;;;;5076818;28;20633;-77
2023/06/11 08:14:48;;;;;;;5.23;4.10;;;26.70;58.70;;;;;;5076436;28;20468;-78
2023/06/11 08:17:16;;;;;;;4.30;3.83;;;26.80;59.00;;;;;;5076473;28;20498;-75
2023/06/11 08:19:45;;;;;;;4.73;4.33;;;26.90;59.10;;;;;;5075355;28;20862;-76
2023/06/11 08:22:16;;;;;;;4.57;3.80;;;26.90;59.20;;;;;;5076271;28;20463;-76
2023/06/11 08:24:43;;;;;;;4.23;3.73;;;26.90;59.20;;;;;;5066320;28;20467;-76
2023/06/11 08:27:10;;;;;;;4.57;4.17;;;26.80;58.70;;;;;;5077167;28;20501;-77
2023/06/11 08:29:38;;;;;;;6.10;4.77;;;26.90;59.20;;;;;;5075904;28;20804;-76
2023/06/11 08:32:07;;;;;;;5.10;4.27;;;27.00;59.00;;;;;;5075466;28;20503;-77
2023/06/11 08:34:34;;;;;;;5.10;4.00;;;27.10;58.80;;;;;;5074346;28;20479;-76
2023/06/11 08:37:03;;;;;;;5.57;4.03;;;27.10;58.60;;;;;;5073395;28;20471;-76
2023/06/11 08:39:31;;;;;;;4.00;3.60;;;27.20;58.80;;;;;;5075294;28;20467;-76
2023/06/11 08:41:58;;;;;;;6.90;3.87;;;27.20;58.80;;;;;;5075256;28;20558;-75
2023/06/11 08:44:25;;;;;;;4.30;3.90;;;27.20;58.60;;;;;;5075572;28;20472;-75
2023/06/11 08:46:55;;;;;;;7.70;4.77;;;27.20;58.40;;;;;;5074674;28;20796;-76
2023/06/11 08:49:23;;;;;;;8.03;5.07;;;27.10;58.10;;;;;;5076072;28;21226;-78
2023/06/11 08:51:51;;;;;;;8.10;4.20;;;27.00;58.30;;;;;;5074498;28;20470;-76
2023/06/11 08:54:19;;;;;;;5.13;3.70;;;26.90;58.70;;;;;;5075217;28;20478;-78
2023/06/11 08:56:46;;;;;;;4.97;4.57;;;27.00;58.90;;;;;;5074751;28;20465;-75
2023/06/11 08:59:13;;;;;;;4.63;4.07;;;26.90;58.70;;;;;;5075513;28;20475;-78
2023/06/11 09:01:41;;;;;;;5.27;4.73;;;26.90;58.80;;;;;;5075627;28;20474;-78
2023/06/11 09:04:09;;;;;;;6.17;4.30;;;26.80;59.00;;;;;;5073998;28;20450;-76
2023/06/11 09:06:39;;;;;;;7.10;4.03;;;26.80;59.10;;;;;;5075905;28;20532;-75
2023/06/11 09:09:07;;;;;;;5.63;4.60;;;26.80;58.90;;;;;;5075822;28;20462;-76
2023/06/11 09:11:38;;;;;;;9.43;4.63;;;26.70;59.20;;;;;;5075156;28;20973;-75
2023/06/11 09:14:07;;;;;;;4.50;3.83;;;26.70;59.30;;;;;;5072122;28;20474;-75
2023/06/11 09:16:40;;;;;;;4.90;4.60;;;26.70;59.40;;;;;;5075011;28;20965;-77
2023/06/11 09:19:12;;;;;;;4.63;4.20;;;26.70;58.90;;;;;;5074489;28;20539;-76
2023/06/11 09:21:47;;;;;;;7.77;5.47;;;26.70;58.90;;;;;;5075577;28;20479;-77
2023/06/11 09:24:15;;;;;;;4.57;4.13;;;26.70;58.80;;;;;;5072440;28;20469;-77
2023/06/11 09:26:50;;;;;;;4.57;4.00;;;26.60;59.00;;;;;;5074547;28;20477;-75
2023/06/11 09:29:17;;;;;;;6.10;4.70;;;26.60;59.10;;;;;;5073493;28;20851;-78
2023/06/11 09:31:44;;;;;;;4.60;4.17;;;26.60;59.40;;;;;;5075025;28;20466;-76
2023/06/11 09:34:17;;;;;;;6.30;4.50;;;26.70;59.80;;;;;;5073774;28;20458;-76
2023/06/11 09:36:48;;;;;;;4.83;4.30;;;26.70;59.60;;;;;;5074793;28;20487;-77
2023/06/11 09:39:16;;;;;;;7.93;5.20;;;26.60;59.40;;;;;;5072941;28;20467;-75
2023/06/11 09:41:48;;;;;;;6.43;4.33;;;26.60;59.50;;;;;;5073936;28;20470;-74
2023/06/11 09:44:15;;;;;;;5.23;4.83;;;26.50;59.20;;;;;;5073891;28;20474;-74
2023/06/11 09:46:43;;;;;;;5.03;4.57;;;26.50;59.60;;;;;;5074627;28;20470;-77
2023/06/11 09:49:13;;;;;;;6.43;4.37;;;26.50;59.80;;;;;;5073941;28;20474;-77
2023/06/11 09:51:40;;;;;;;5.50;4.83;;;26.40;59.70;;;;;;5074380;28;20471;-76
2023/06/11 09:54:08;;;;;;;5.60;5.10;;;26.40;60.20;;;;;;5046444;28;20474;-76
2023/06/11 09:56:36;;;;;;;5.27;4.87;;;26.50;60.50;;;;;;5074532;28;20474;-77
2023/06/11 09:59:04;;;;;;;7.53;4.93;;;26.50;59.50;;;;;;5073375;28;20791;-77
2023/06/11 10:01:31;;;;;;;7.40;4.73;;;26.60;59.90;;;;;;5073109;28;20960;-77
2023/06/11 10:03:59;;;;;;;5.07;4.47;;;26.60;60.70;;;;;;5055902;28;20882;-76
2023/06/11 10:06:32;;;;;;;4.87;4.37;;;26.60;59.70;;;;;;5065496;28;20847;-78
2023/06/11 10:09:08;;;;;;;4.50;4.20;;;26.70;59.80;;;;;;5075153;28;20488;-75
2023/06/11 10:11:38;;;;;;;6.33;5.23;;;26.70;59.60;;;;;;5073078;28;20463;-74
2023/06/11 10:14:15;;;;;;;7.03;5.80;;;26.70;58.80;;;;;;5073514;28;20555;-77
2023/06/11 10:16:51;;;;;;;8.77;6.07;;;26.70;58.90;;;;;;5044848;28;20490;-78
2023/06/11 10:19:19;;;;;;;6.63;4.83;;;26.80;58.90;;;;;;5074158;28;20467;-75
2023/06/11 10:21:50;;;;;;;6.00;5.50;;;26.80;59.00;;;;;;5074330;28;20546;-78
2023/06/11 10:24:24;;;;;;;5.97;5.53;;;26.90;59.00;;;;;;5073637;28;20492;-76
2023/06/11 10:27:15;;;;;;;5.60;5.20;;;27.00;59.20;;;;;;5073452;28;20929;-78
2023/06/11 10:29:43;;;;;;;7.20;5.97;;;27.00;59.00;;;;;;5073034;28;20464;-76
2023/06/11 10:32:18;;;;;;;6.60;6.00;;;27.10;58.60;;;;;;5073743;28;20537;-79
2023/06/11 10:34:45;;;;;;;6.07;4.67;;;27.00;58.40;;;;;;5072449;28;20550;-78
2023/06/11 10:37:14;;;;;;;4.90;4.50;;;27.10;58.60;;;;;;5073867;28;20812;-77
2023/06/11 10:39:54;;;;;;;6.37;5.67;;;27.10;58.00;;;;;;5072711;28;20469;-75
2023/06/11 10:42:25;;;;;;;5.27;4.90;;;27.20;58.30;;;;;;5073583;28;20547;-74
2023/06/11 10:44:59;;;;;;;8.07;5.57;;;27.20;58.90;;;;;;5072673;28;20475;-76
2023/06/11 10:47:28;;;;;;;6.00;5.30;;;27.30;59.40;;;;;;5072588;28;20464;-76
2023/06/11 10:50:06;;;;;;;5.33;4.90;;;27.30;57.80;;;;;;5073928;28;20544;-77
2023/06/11 10:52:47;;;;;;;6.20;5.70;;;27.30;57.40;;;;;;5073172;28;20494;-76
2023/06/11 10:55:14;;;;;;;5.93;5.43;;;27.30;57.10;;;;;;5073748;28;20475;-76
2023/06/11 10:57:42;;;;;;;7.47;6.67;;;27.40;57.50;;;;;;5072823;28;20610;-76
2023/06/11 11:00:15;;;;;;;6.07;5.57;;;27.40;57.80;;;;;;5074283;28;20481;-76
2023/06/11 11:02:42;;;;;;;6.63;6.03;;;27.40;58.00;;;;;;5072311;28;20568;-74
2023/06/11 11:05:12;;;;;;;6.30;5.70;;;27.40;57.90;;;;;;5074641;28;20478;-76
2023/06/11 11:07:44;;;;;;;6.13;5.53;;;27.40;58.00;;;;;;5072014;28;20472;-78
2023/06/11 11:10:13;;;;;;;6.13;5.53;;;27.50;57.80;;;;;;5074110;28;20485;-75
2023/06/11 11:12:41;;;;;;;6.90;6.30;;;27.50;58.00;;;;;;5074629;28;20970;-74
2023/06/11 11:15:08;;;;;;;5.60;5.20;;;27.70;57.60;;;;;;5074026;28;20493;-75
2023/06/11 11:17:39;;;;;;;6.70;6.20;;;27.70;57.20;;;;;;5073175;28;20857;-76
2023/06/11 11:20:08;;;;;;;5.97;5.40;;;27.60;55.70;;;;;;5073112;28;20464;-77
2023/06/11 11:22:35;;;;;;;6.60;5.83;;;27.70;55.70;;;;;;5073262;28;20554;-75
2023/06/11 11:25:07;;;;;;;6.10;5.57;;;27.60;55.60;;;;;;5074018;28;20479;-77
2023/06/11 11:27:37;;;;;;;8.27;6.10;;;27.50;55.90;;;;;;5074726;28;20495;-77
2023/06/11 11:30:05;;;;;;;5.53;5.13;;;27.60;56.00;;;;;;5077352;28;20519;-75
2023/06/11 11:32:37;;;;;;;7.00;6.40;;;27.60;55.60;;;;;;5076899;28;20482;-77
2023/06/11 11:35:06;;;;;;;6.53;5.90;;;27.60;55.20;;;;;;5075769;28;20569;-77
2023/06/11 11:37:35;;;;;;;7.37;6.67;;;27.60;54.90;;;;;;5076011;28;20477;-77
2023/06/11 11:40:07;;;;;;;6.93;6.30;;;27.60;54.90;;;;;;5075571;28;20465;-77
2023/06/11 11:42:45;;;;;;;6.80;5.70;;;27.50;54.60;;;;;;5076694;28;20512;-77
2023/06/11 11:45:14;;;;;;;7.83;7.33;;;27.50;54.90;;;;;;5076052;28;20945;-77
2023/06/11 11:47:42;;;;;;;7.07;6.47;;;27.50;55.10;;;;;;5076277;28;21053;-76
2023/06/11 11:50:21;;;;;;;7.43;6.80;;;27.50;54.90;;;;;;5076106;28;20626;-76
2023/06/11 11:53:02;;;;;;;6.17;5.57;;;27.50;54.90;;;;;;5075968;28;20530;-76
2023/06/11 11:55:31;;;;;;;6.27;5.60;;;27.60;55.40;;;;;;5075918;28;20495;-77
2023/06/11 11:58:06;;;;;;;7.83;5.90;;;27.70;55.40;;;;;;5075136;28;20456;-77
2023/06/11 12:00:34;;;;;;;6.00;5.50;;;27.80;55.20;;;;;;5075412;28;20952;-76
2023/06/11 12:03:08;;;;;;;8.00;6.33;;;27.90;54.90;;;;;;5074767;28;20469;-77
2023/06/11 12:05:35;;;;;;;6.17;5.67;;;27.90;55.60;;;;;;5074889;28;20480;-75
2023/06/11 12:08:02;;;;;;;6.87;6.17;;;28.00;56.10;;;;;;5075730;28;20454;-77
2023/06/11 12:10:31;;;;;;;6.67;6.07;;;27.90;56.50;;;;;;5075587;28;20481;-77
2023/06/11 12:12:59;;;;;;;6.80;6.30;;;27.90;56.70;;;;;;5074946;28;20471;-77
2023/06/11 12:15:26;;;;;;;8.10;6.40;;;27.80;56.90;;;;;;5074996;28;20477;-75
2023/06/11 12:17:53;;;;;;;8.13;7.43;;;27.80;57.00;;;;;;5074844;28;20477;-76
2023/06/11 12:20:22;;;;;;;7.57;6.80;;;27.70;57.50;;;;;;5075037;28;20500;-75
2023/06/11 12:22:50;;;;;;;7.40;6.90;;;27.70;58.60;;;;;;5054756;28;20480;-75
2023/06/11 12:25:17;;;;;;;7.10;6.60;;;27.60;59.00;;;;;;5067757;28;20475;-75
2023/06/11 12:27:46;;;;;;;8.53;7.80;;;27.70;59.10;;;;;;5073558;28;20473;-75
2023/06/11 12:30:13;;;;;;;7.13;6.43;;;27.70;59.10;;;;;;5075754;28;20465;-76
2023/06/11 12:32:40;;;;;;;7.27;6.77;;;27.70;59.40;;;;;;5075703;28;20474;-74
2023/06/11 12:35:08;;;;;;;8.57;7.77;;;27.80;59.50;;;;;;5073577;28;20834;-74
2023/06/11 12:37:37;;;;;;;7.80;7.30;;;27.90;59.20;;;;;;5074693;28;20477;-74
2023/06/11 12:40:05;;;;;;;7.33;6.80;;;27.90;59.20;;;;;;5073459;28;20576;-76
2023/06/11 12:42:33;;;;;;;7.23;6.63;;;27.80;59.20;;;;;;5057359;28;20590;-74
2023/06/11 12:45:02;;;;;;;7.87;7.10;;;27.80;59.70;;;;;;5063439;28;20473;-74
2023/06/11 12:47:33;;;;;;;8.90;7.90;;;27.80;60.50;;;;;;5074304;28;20892;-77
2023/06/11 12:50:01;;;;;;;8.60;8.00;;;27.70;60.90;;;;;;5074188;28;20501;-75
2023/06/11 12:52:28;;;;;;;8.47;7.67;;;27.70;61.10;;;;;;5074426;28;20470;-75
2023/06/11 12:54:56;;;;;;;7.70;7.00;;;27.70;61.40;;;;;;5073140;28;20468;-77
2023/06/11 12:57:23;;;;;;;8.40;7.70;;;27.70;60.70;;;;;;5074231;28;20544;-76